Newburgh, Canada
Current Conditions -  °F | °C
As of 11:00 PM on Sunday 25 Jan 2015 (Local Time) from CYGK Reporting Station
Scattered Clouds Scattered Clouds  
Wind Chill: -8°   Ceiling: Unl
Heat Index:   Visibility: 15mi
Dew Point: -6°   Wind: 8mph
Humidity: 61%   Direction: 40°NE
Pressure: 30.11"   Gusts: NA
Location:  44.33°N, 76.87°W
Report Text: CYGK 260400Z 04007KT 15SM SCT210 M15/M21 A3011 RMK CI3 LAST STFD OBS/NEXT 261100UTC SLP203
Loading
Personal Weather Stations






























Interactive Weather Map New forecast layout! Learn more

10-Day Weather Forecast

Advertisements
Track Severe Weather on mobile